sensor_id;sensor_type;location;lat;lon;timestamp;pressure;altitude;pressure_sealevel;temperature;humidity
7264;BME280;3673;52.480;13.348;2023-02-13T00:00:32;103286.84;;;12.29;67.92
7264;BME280;3673;52.480;13.348;2023-02-13T00:02:59;103300.81;;;12.55;67.28
7264;BME280;3673;52.480;13.348;2023-02-13T00:05:26;103309.13;;;12.68;66.73
7264;BME280;3673;52.480;13.348;2023-02-13T00:07:53;103315.53;;;12.50;66.92
7264;BME280;3673;52.480;13.348;2023-02-13T00:10:20;103315.72;;;12.82;66.21
7264;BME280;3673;52.480;13.348;2023-02-13T00:12:46;103310.00;;;12.96;65.74
7264;BME280;3673;52.480;13.348;2023-02-13T00:15:13;103310.88;;;12.41;66.43
7264;BME280;3673;52.480;13.348;2023-02-13T00:17:41;103307.16;;;12.34;66.73
7264;BME280;3673;52.480;13.348;2023-02-13T00:20:16;103305.06;;;12.24;66.55
7264;BME280;3673;52.480;13.348;2023-02-13T00:22:46;103296.94;;;12.70;65.27
7264;BME280;3673;52.480;13.348;2023-02-13T00:25:12;103303.34;;;12.52;65.46
7264;BME280;3673;52.480;13.348;2023-02-13T00:27:39;103309.13;;;12.68;64.58
7264;BME280;3673;52.480;13.348;2023-02-13T00:30:07;103312.00;;;12.76;64.26
7264;BME280;3673;52.480;13.348;2023-02-13T00:32:34;103306.28;;;12.89;63.62
7264;BME280;3673;52.480;13.348;2023-02-13T00:35:02;103309.44;;;12.77;63.48
7264;BME280;3673;52.480;13.348;2023-02-13T00:37:29;103311.75;;;12.42;64.05
7264;BME280;3673;52.480;13.348;2023-02-13T00:39:56;103309.56;;;12.54;64.10
7264;BME280;3673;52.480;13.348;2023-02-13T00:42:23;103302.97;;;12.39;63.60
7264;BME280;3673;52.480;13.348;2023-02-13T00:44:51;103309.63;;;12.30;63.80
7264;BME280;3673;52.480;13.348;2023-02-13T00:47:18;103309.88;;;12.37;63.21
7264;BME280;3673;52.480;13.348;2023-02-13T00:49:45;103309.00;;;12.64;62.68
7264;BME280;3673;52.480;13.348;2023-02-13T00:52:13;103311.19;;;12.50;62.45
7264;BME280;3673;52.480;13.348;2023-02-13T00:54:40;103300.59;;;12.22;62.48
7264;BME280;3673;52.480;13.348;2023-02-13T00:57:06;103298.53;;;12.65;61.86
7264;BME280;3673;52.480;13.348;2023-02-13T00:59:33;103296.44;;;12.82;60.95
7264;BME280;3673;52.480;13.348;2023-02-13T01:02:00;103293.03;;;12.58;60.79
7264;BME280;3673;52.480;13.348;2023-02-13T01:04:27;103291.00;;;12.76;60.71
7264;BME280;3673;52.480;13.348;2023-02-13T01:06:53;103301.13;;;12.92;59.97
7264;BME280;3673;52.480;13.348;2023-02-13T01:09:21;103304.19;;;12.77;59.66
7264;BME280;3673;52.480;13.348;2023-02-13T01:11:48;103301.25;;;12.68;59.86
7264;BME280;3673;52.480;13.348;2023-02-13T01:14:15;103299.69;;;12.47;60.34
7264;BME280;3673;52.480;13.348;2023-02-13T01:16:42;103292.16;;;12.85;58.96
7264;BME280;3673;52.480;13.348;2023-02-13T01:19:09;103301.69;;;12.54;58.96
7264;BME280;3673;52.480;13.348;2023-02-13T01:21:35;103302.66;;;12.30;59.38
7264;BME280;3673;52.480;13.348;2023-02-13T01:24:04;103306.88;;;12.52;59.19
7264;BME280;3673;52.480;13.348;2023-02-13T01:26:32;103304.44;;;12.58;58.69
7264;BME280;3673;52.480;13.348;2023-02-13T01:28:59;103304.22;;;12.52;58.86
7264;BME280;3673;52.480;13.348;2023-02-13T01:31:26;103301.88;;;12.60;58.67
7264;BME280;3673;52.480;13.348;2023-02-13T01:33:55;103300.50;;;12.44;58.93
7264;BME280;3673;52.480;13.348;2023-02-13T01:36:24;103301.13;;;12.37;59.27
7264;BME280;3673;52.480;13.348;2023-02-13T01:38:53;103305.56;;;12.13;60.16
7264;BME280;3673;52.480;13.348;2023-02-13T01:41:20;103300.25;;;12.38;59.82
7264;BME280;3673;52.480;13.348;2023-02-13T01:43:51;103293.81;;;12.55;59.39
7264;BME280;3673;52.480;13.348;2023-02-13T01:46:24;103296.63;;;12.61;59.17
7264;BME280;3673;52.480;13.348;2023-02-13T01:48:56;103295.09;;;12.68;59.12
7264;BME280;3673;52.480;13.348;2023-02-13T01:51:28;103302.50;;;12.53;59.45
7264;BME280;3673;52.480;13.348;2023-02-13T01:54:00;103293.09;;;12.59;59.59
7264;BME280;3673;52.480;13.348;2023-02-13T01:56:32;103288.19;;;12.70;59.13
7264;BME280;3673;52.480;13.348;2023-02-13T01:59:04;103294.44;;;12.47;59.96
7264;BME280;3673;52.480;13.348;2023-02-13T02:01:33;103300.97;;;12.59;59.91
7264;BME280;3673;52.480;13.348;2023-02-13T02:04:06;103292.91;;;12.26;61.43
7264;BME280;3673;52.480;13.348;2023-02-13T02:06:37;103295.06;;;12.13;61.19
7264;BME280;3673;52.480;13.348;2023-02-13T02:09:13;103298.38;;;12.07;61.80
7264;BME280;3673;52.480;13.348;2023-02-13T02:11:47;103291.22;;;11.78;62.80
7264;BME280;3673;52.480;13.348;2023-02-13T02:14:17;103292.44;;;12.13;61.92
7264;BME280;3673;52.480;13.348;2023-02-13T02:16:44;103294.09;;;12.36;61.41
7264;BME280;3673;52.480;13.348;2023-02-13T02:19:18;103294.28;;;12.42;61.44
7264;BME280;3673;52.480;13.348;2023-02-13T02:22:31;103302.97;;;12.14;62.40
7264;BME280;3673;52.480;13.348;2023-02-13T02:28:51;103302.75;;;12.08;62.60
7264;BME280;3673;52.480;13.348;2023-02-13T02:31:42;103302.00;;;12.11;62.75
7264;BME280;3673;52.480;13.348;2023-02-13T02:34:20;103307.84;;;12.29;62.43
7264;BME280;3673;52.480;13.348;2023-02-13T02:37:12;103305.97;;;12.00;62.83
7264;BME280;3673;52.480;13.348;2023-02-13T02:39:55;103305.81;;;11.95;63.07
7264;BME280;3673;52.480;13.348;2023-02-13T02:42:33;103305.66;;;11.91;63.20
7264;BME280;3673;52.480;13.348;2023-02-13T02:45:06;103303.16;;;11.70;64.12
7264;BME280;3673;52.480;13.348;2023-02-13T02:47:43;103303.78;;;11.86;63.87
7264;BME280;3673;52.480;13.348;2023-02-13T02:50:35;103308.41;;;11.70;63.75
7264;BME280;3673;52.480;13.348;2023-02-13T02:53:17;103305.41;;;11.83;63.85
7264;BME280;3673;52.480;13.348;2023-02-13T02:55:51;103309.22;;;11.69;64.14
7264;BME280;3673;52.480;13.348;2023-02-13T02:58:23;103298.34;;;11.82;64.18
7264;BME280;3673;52.480;13.348;2023-02-13T03:01:13;103298.53;;;11.86;64.04
7264;BME280;3673;52.480;13.348;2023-02-13T03:03:59;103311.16;;;12.23;63.18
7264;BME280;3673;52.480;13.348;2023-02-13T03:06:47;103309.06;;;11.88;63.57
7264;BME280;3673;52.480;13.348;2023-02-13T03:09:21;103304.56;;;11.84;64.10
7264;BME280;3673;52.480;13.348;2023-02-13T03:12:08;103311.81;;;12.16;63.52
7264;BME280;3673;52.480;13.348;2023-02-13T03:14:54;103311.06;;;11.95;63.70
7264;BME280;3673;52.480;13.348;2023-02-13T03:17:21;103304.56;;;11.84;64.58
7264;BME280;3673;52.480;13.348;2023-02-13T03:20:21;103311.53;;;11.83;64.14
7264;BME280;3673;52.480;13.348;2023-02-13T03:23:12;103313.53;;;11.91;64.32
7264;BME280;3673;52.480;13.348;2023-02-13T03:26:16;103304.53;;;12.34;63.17
7264;BME280;3673;52.480;13.348;2023-02-13T03:29:04;103311.94;;;12.21;62.95
7264;BME280;3673;52.480;13.348;2023-02-13T03:32:02;103316.09;;;12.14;63.45
7264;BME280;3673;52.480;13.348;2023-02-13T03:34:37;103311.81;;;12.16;62.92
7264;BME280;3673;52.480;13.348;2023-02-13T03:37:26;103310.25;;;11.98;63.67
7264;BME280;3673;52.480;13.348;2023-02-13T03:40:15;103303.28;;;12.23;63.05
7264;BME280;3673;52.480;13.348;2023-02-13T03:42:47;103308.91;;;11.83;64.11
7264;BME280;3673;52.480;13.348;2023-02-13T03:45:21;103310.25;;;11.98;63.32
7264;BME280;3673;52.480;13.348;2023-02-13T03:48:08;103304.31;;;12.28;62.79
7264;BME280;3673;52.480;13.348;2023-02-13T03:50:56;103300.50;;;12.44;61.95
7264;BME280;3673;52.480;13.348;2023-02-13T03:53:25;103300.47;;;12.17;62.58
7264;BME280;3673;52.480;13.348;2023-02-13T03:55:55;103305.91;;;11.98;62.94
7264;BME280;3673;52.480;13.348;2023-02-13T03:58:42;103295.41;;;11.73;63.66
7264;BME280;3673;52.480;13.348;2023-02-13T04:01:31;103296.19;;;11.94;63.48
7264;BME280;3673;52.480;13.348;2023-02-13T04:04:07;103302.72;;;12.07;62.75
7264;BME280;3673;52.480;13.348;2023-02-13T04:06:41;103294.72;;;11.78;63.09
7264;BME280;3673;52.480;13.348;2023-02-13T04:09:14;103295.38;;;11.97;62.95
7264;BME280;3673;52.480;13.348;2023-02-13T04:11:49;103288.34;;;11.96;63.07
7264;BME280;3673;52.480;13.348;2023-02-13T04:14:23;103286.81;;;11.77;63.78
7264;BME280;3673;52.480;13.348;2023-02-13T04:16:54;103292.69;;;11.95;63.17
7264;BME280;3673;52.480;13.348;2023-02-13T04:19:24;103290.38;;;11.79;63.47
7264;BME280;3673;52.480;13.348;2023-02-13T04:21:56;103294.69;;;12.02;63.08
7264;BME280;3673;52.480;13.348;2023-02-13T04:24:24;103289.38;;;11.75;63.33
7264;BME280;3673;52.480;13.348;2023-02-13T04:26:52;103294.16;;;11.63;64.18
7264;BME280;3673;52.480;13.348;2023-02-13T04:29:20;103295.00;;;11.86;63.45
7264;BME280;3673;52.480;13.348;2023-02-13T04:31:47;103288.59;;;11.78;63.87
7264;BME280;3673;52.480;13.348;2023-02-13T04:34:14;103297.72;;;11.89;63.34
7264;BME280;3673;52.480;13.348;2023-02-13T04:36:41;103287.19;;;11.87;63.39
7264;BME280;3673;52.480;13.348;2023-02-13T04:39:08;103285.72;;;11.96;63.12
7264;BME280;3673;52.480;13.348;2023-02-13T04:41:37;103280.16;;;12.12;62.60
7264;BME280;3673;52.480;13.348;2023-02-13T04:44:04;103276.63;;;12.38;62.21
7264;BME280;3673;52.480;13.348;2023-02-13T04:46:31;103275.16;;;12.46;61.88
7264;BME280;3673;52.480;13.348;2023-02-13T04:48:58;103279.06;;;12.59;60.49
7264;BME280;3673;52.480;13.348;2023-02-13T04:51:24;103273.16;;;12.12;61.45
7264;BME280;3673;52.480;13.348;2023-02-13T04:53:51;103277.63;;;12.15;61.14
7264;BME280;3673;52.480;13.348;2023-02-13T04:56:18;103276.19;;;12.24;60.90
7264;BME280;3673;52.480;13.348;2023-02-13T04:58:46;103271.16;;;12.30;60.60
7264;BME280;3673;52.480;13.348;2023-02-13T05:01:13;103272.25;;;12.10;60.37
7264;BME280;3673;52.480;13.348;2023-02-13T05:03:40;103275.69;;;12.09;60.21
7264;BME280;3673;52.480;13.348;2023-02-13T05:06:08;103273.22;;;12.14;59.67
7264;BME280;3673;52.480;13.348;2023-02-13T05:08:34;103280.34;;;12.18;59.97
7264;BME280;3673;52.480;13.348;2023-02-13T05:11:01;103284.88;;;11.97;59.89
7264;BME280;3673;52.480;13.348;2023-02-13T05:13:28;103278.78;;;12.23;59.47
7264;BME280;3673;52.480;13.348;2023-02-13T05:15:56;103278.72;;;11.71;60.58
7264;BME280;3673;52.480;13.348;2023-02-13T05:18:23;103283.41;;;11.79;60.41
7264;BME280;3673;52.480;13.348;2023-02-13T05:20:50;103278.38;;;11.62;60.80
7264;BME280;3673;52.480;13.348;2023-02-13T05:23:31;103287.75;;;12.04;59.68
7264;BME280;3673;52.480;13.348;2023-02-13T05:25:57;103280.78;;;12.05;59.41
7264;BME280;3673;52.480;13.348;2023-02-13T05:28:25;103284.50;;;11.86;59.63
7264;BME280;3673;52.480;13.348;2023-02-13T05:31:10;103285.09;;;12.03;58.96
7264;BME280;3673;52.480;13.348;2023-02-13T05:33:37;103287.47;;;12.22;58.30
7264;BME280;3673;52.480;13.348;2023-02-13T05:36:05;103293.56;;;12.21;58.61
7264;BME280;3673;52.480;13.348;2023-02-13T05:38:32;103277.50;;;12.10;58.71
7264;BME280;3673;52.480;13.348;2023-02-13T05:40:59;103289.50;;;12.04;58.31
7264;BME280;3673;52.480;13.348;2023-02-13T05:43:26;103286.91;;;12.05;58.67
7264;BME280;3673;52.480;13.348;2023-02-13T05:46:02;103289.28;;;12.23;58.22
7264;BME280;3673;52.480;13.348;2023-02-13T05:48:31;103284.28;;;12.57;57.68
7264;BME280;3673;52.480;13.348;2023-02-13T05:50:57;103289.66;;;12.35;57.57
7264;BME280;3673;52.480;13.348;2023-02-13T05:53:24;103290.91;;;12.19;57.34
7264;BME280;3673;52.480;13.348;2023-02-13T05:55:51;103292.13;;;12.04;57.70
7264;BME280;3673;52.480;13.348;2023-02-13T05:58:19;103294.22;;;12.14;57.56
7264;BME280;3673;52.480;13.348;2023-02-13T06:00:46;103298.03;;;12.23;56.82
7264;BME280;3673;52.480;13.348;2023-02-13T06:03:13;103299.81;;;12.51;56.86
7264;BME280;3673;52.480;13.348;2023-02-13T06:05:42;103307.84;;;12.29;56.63
7264;BME280;3673;52.480;13.348;2023-02-13T06:08:08;103314.63;;;12.22;56.58
7264;BME280;3673;52.480;13.348;2023-02-13T06:10:35;103304.59;;;12.63;56.02
7264;BME280;3673;52.480;13.348;2023-02-13T06:13:02;103306.84;;;12.51;55.98
7264;BME280;3673;52.480;13.348;2023-02-13T06:15:29;103310.03;;;12.42;56.36
7264;BME280;3673;52.480;13.348;2023-02-13T06:17:56;103311.00;;;12.44;56.15
7264;BME280;3673;52.480;13.348;2023-02-13T06:20:22;103310.38;;;12.53;56.30
7264;BME280;3673;52.480;13.348;2023-02-13T06:22:51;103314.56;;;12.21;56.52
7264;BME280;3673;52.480;13.348;2023-02-13T06:25:18;103312.94;;;12.24;56.84
7264;BME280;3673;52.480;13.348;2023-02-13T06:27:46;103314.16;;;12.34;56.40
7264;BME280;3673;52.480;13.348;2023-02-13T06:30:14;103311.28;;;12.53;56.46
7264;BME280;3673;52.480;13.348;2023-02-13T06:32:42;103315.97;;;12.63;56.00
7264;BME280;3673;52.480;13.348;2023-02-13T06:35:08;103316.34;;;12.75;55.51
7264;BME280;3673;52.480;13.348;2023-02-13T06:37:35;103315.25;;;12.96;54.82
7264;BME280;3673;52.480;13.348;2023-02-13T06:40:06;103310.03;;;12.97;54.82
7264;BME280;3673;52.480;13.348;2023-02-13T06:42:34;103314.13;;;12.87;54.98
7264;BME280;3673;52.480;13.348;2023-02-13T06:45:01;103316.09;;;12.68;55.12
7264;BME280;3673;52.480;13.348;2023-02-13T06:47:28;103320.09;;;12.55;55.81
7264;BME280;3673;52.480;13.348;2023-02-13T06:49:54;103319.09;;;12.52;55.95
7264;BME280;3673;52.480;13.348;2023-02-13T06:52:21;103331.66;;;12.35;56.74
7264;BME280;3673;52.480;13.348;2023-02-13T06:54:48;103324.69;;;12.35;56.57
7264;BME280;3673;52.480;13.348;2023-02-13T06:57:16;103319.84;;;12.48;56.67
7264;BME280;3673;52.480;13.348;2023-02-13T06:59:43;103336.59;;;12.51;56.71
7264;BME280;3673;52.480;13.348;2023-02-13T07:02:10;103334.91;;;12.53;56.57
7264;BME280;3673;52.480;13.348;2023-02-13T07:04:37;103336.94;;;12.62;56.72
7264;BME280;3673;52.480;13.348;2023-02-13T07:07:04;103344.63;;;12.56;57.06
7264;BME280;3673;52.480;13.348;2023-02-13T07:09:31;103336.03;;;12.61;57.24
7264;BME280;3673;52.480;13.348;2023-02-13T07:12:01;103325.69;;;12.66;57.38
7264;BME280;3673;52.480;13.348;2023-02-13T07:14:29;103334.56;;;12.69;57.17
7264;BME280;3673;52.480;13.348;2023-02-13T07:16:56;103334.84;;;12.78;56.78
7264;BME280;3673;52.480;13.348;2023-02-13T07:19:23;103342.78;;;12.53;57.25
7264;BME280;3673;52.480;13.348;2023-02-13T07:21:49;103345.13;;;12.44;57.77
7264;BME280;3673;52.480;13.348;2023-02-13T07:24:16;103341.28;;;12.34;57.85
7264;BME280;3673;52.480;13.348;2023-02-13T07:26:43;103338.91;;;12.42;57.07
7264;BME280;3673;52.480;13.348;2023-02-13T07:29:10;103348.50;;;12.67;56.83
7264;BME280;3673;52.480;13.348;2023-02-13T07:31:38;103349.69;;;12.50;56.92
7264;BME280;3673;52.480;13.348;2023-02-13T07:34:05;103344.59;;;12.54;56.93
7264;BME280;3673;52.480;13.348;2023-02-13T07:36:32;103339.28;;;12.81;56.37
7264;BME280;3673;52.480;13.348;2023-02-13T07:38:59;103346.44;;;12.58;56.92
7264;BME280;3673;52.480;13.348;2023-02-13T07:41:25;103336.13;;;12.64;56.71
7264;BME280;3673;52.480;13.348;2023-02-13T07:43:52;103350.56;;;12.25;57.64
7264;BME280;3673;52.480;13.348;2023-02-13T07:46:19;103352.69;;;12.10;58.26
7264;BME280;3673;52.480;13.348;2023-02-13T07:48:47;103350.06;;;12.10;58.03
7264;BME280;3673;52.480;13.348;2023-02-13T07:51:14;103348.38;;;12.37;57.87
7264;BME280;3673;52.480;13.348;2023-02-13T07:53:41;103357.13;;;12.63;57.48
7264;BME280;3673;52.480;13.348;2023-02-13T07:56:09;103357.94;;;12.10;58.50
7264;BME280;3673;52.480;13.348;2023-02-13T07:58:36;103352.72;;;12.11;58.49
7264;BME280;3673;52.480;13.348;2023-02-13T08:01:09;103356.25;;;11.86;59.67
7264;BME280;3673;52.480;13.348;2023-02-13T08:03:36;103356.25;;;11.86;59.60
7264;BME280;3673;52.480;13.348;2023-02-13T08:06:05;103362.22;;;12.08;59.11
7264;BME280;3673;52.480;13.348;2023-02-13T08:08:33;103364.28;;;11.69;59.89
7264;BME280;3673;52.480;13.348;2023-02-13T08:11:04;103360.50;;;12.33;58.17
7264;BME280;3673;52.480;13.348;2023-02-13T08:13:49;103367.59;;;12.11;59.00
7264;BME280;3673;52.480;13.348;2023-02-13T08:16:16;103364.69;;;12.28;58.50
7264;BME280;3673;52.480;13.348;2023-02-13T08:18:42;103358.78;;;12.34;58.49
7264;BME280;3673;52.480;13.348;2023-02-13T08:21:10;103363.28;;;12.65;57.63
7264;BME280;3673;52.480;13.348;2023-02-13T08:23:39;103363.28;;;12.13;58.72
7264;BME280;3673;52.480;13.348;2023-02-13T08:26:06;103361.00;;;12.49;57.92
7264;BME280;3673;52.480;13.348;2023-02-13T08:28:32;103359.75;;;12.63;57.39
7264;BME280;3673;52.480;13.348;2023-02-13T08:30:59;103360.03;;;12.72;57.30
7264;BME280;3673;52.480;13.348;2023-02-13T08:33:26;103363.09;;;12.59;57.13
7264;BME280;3673;52.480;13.348;2023-02-13T08:35:53;103357.31;;;12.69;57.24
7264;BME280;3673;52.480;13.348;2023-02-13T08:38:21;103361.22;;;12.55;57.39
7264;BME280;3673;52.480;13.348;2023-02-13T08:40:48;103364.66;;;12.27;58.21
7264;BME280;3673;52.480;13.348;2023-02-13T08:43:15;103368.78;;;12.71;57.38
7264;BME280;3673;52.480;13.348;2023-02-13T08:45:42;103361.38;;;12.59;57.21
7264;BME280;3673;52.480;13.348;2023-02-13T08:48:09;103357.00;;;12.60;57.37
7264;BME280;3673;52.480;13.348;2023-02-13T08:50:36;103363.50;;;12.44;57.49
7264;BME280;3673;52.480;13.348;2023-02-13T08:53:03;103362.72;;;12.47;57.45
7264;BME280;3673;52.480;13.348;2023-02-13T08:55:31;103363.91;;;12.56;57.38
7264;BME280;3673;52.480;13.348;2023-02-13T08:57:59;103364.00;;;12.59;57.46
7264;BME280;3673;52.480;13.348;2023-02-13T09:00:27;103356.38;;;11.91;58.94
7264;BME280;3673;52.480;13.348;2023-02-13T09:02:54;103351.59;;;12.03;58.96
7264;BME280;3673;52.480;13.348;2023-02-13T09:05:21;103356.03;;;12.56;57.69
7264;BME280;3673;52.480;13.348;2023-02-13T09:07:47;103357.44;;;12.21;58.63
7264;BME280;3673;52.480;13.348;2023-02-13T09:10:14;103368.91;;;12.49;57.63
7264;BME280;3673;52.480;13.348;2023-02-13T09:12:42;103369.31;;;11.63;60.36
7264;BME280;3673;52.480;13.348;2023-02-13T09:15:09;103360.69;;;11.89;60.29
7264;BME280;3673;52.480;13.348;2023-02-13T09:17:36;103365.44;;;12.24;59.09
7264;BME280;3673;52.480;13.348;2023-02-13T09:20:04;103359.38;;;12.02;59.86
7264;BME280;3673;52.480;13.348;2023-02-13T09:22:30;103365.75;;;12.08;59.79
7264;BME280;3673;52.480;13.348;2023-02-13T09:24:57;103369.03;;;12.26;59.23
7264;BME280;3673;52.480;13.348;2023-02-13T09:27:28;103368.44;;;12.35;59.41
7264;BME280;3673;52.480;13.348;2023-02-13T09:29:56;103373.72;;;11.86;60.78
7264;BME280;3673;52.480;13.348;2023-02-13T09:32:23;103372.94;;;11.66;61.75
7264;BME280;3673;52.480;13.348;2023-02-13T09:34:50;103379.19;;;12.43;59.92
7264;BME280;3673;52.480;13.348;2023-02-13T09:37:17;103381.88;;;12.44;60.23
7264;BME280;3673;52.480;13.348;2023-02-13T09:39:44;103379.06;;;12.14;60.81
7264;BME280;3673;52.480;13.348;2023-02-13T09:42:18;103378.09;;;12.36;60.62
7264;BME280;3673;52.480;13.348;2023-02-13T09:44:46;103387.22;;;12.22;60.94
7264;BME280;3673;52.480;13.348;2023-02-13T09:47:20;103382.41;;;11.85;62.41
7264;BME280;3673;52.480;13.348;2023-02-13T09:49:52;103392.41;;;11.49;63.53
7264;BME280;3673;52.480;13.348;2023-02-13T09:52:20;103385.22;;;12.15;62.93
7264;BME280;3673;52.480;13.348;2023-02-13T09:54:47;103384.06;;;12.32;61.89
7264;BME280;3673;52.480;13.348;2023-02-13T09:57:24;103377.81;;;12.28;62.48
7264;BME280;3673;52.480;13.348;2023-02-13T09:59:57;103374.13;;;12.74;61.20
7264;BME280;3673;52.480;13.348;2023-02-13T10:02:50;103374.13;;;12.49;61.68
7264;BME280;3673;52.480;13.348;2023-02-13T10:05:39;103370.06;;;12.31;62.27
7264;BME280;3673;52.480;13.348;2023-02-13T10:08:20;103382.81;;;12.46;61.89
7264;BME280;3673;52.480;13.348;2023-02-13T10:10:55;103370.31;;;12.39;62.04
7264;BME280;3673;52.480;13.348;2023-02-13T10:13:49;103378.03;;;12.60;61.69
7264;BME280;3673;52.480;13.348;2023-02-13T10:16:21;103373.97;;;12.17;62.93
7264;BME280;3673;52.480;13.348;2023-02-13T10:18:54;103372.34;;;12.73;61.29
7264;BME280;3673;52.480;13.348;2023-02-13T10:21:27;103377.59;;;12.73;61.27
7264;BME280;3673;52.480;13.348;2023-02-13T10:24:00;103381.28;;;12.53;62.44
7264;BME280;3673;52.480;13.348;2023-02-13T10:26:32;103372.91;;;11.88;63.90
7264;BME280;3673;52.480;13.348;2023-02-13T10:29:16;103377.25;;;11.88;64.31
7264;BME280;3673;52.480;13.348;2023-02-13T10:32:04;103374.59;;;11.86;63.83
7264;BME280;3673;52.480;13.348;2023-02-13T10:34:40;103369.44;;;12.13;63.71
7264;BME280;3673;52.480;13.348;2023-02-13T10:37:13;103371.00;;;12.08;63.73
7264;BME280;3673;52.480;13.348;2023-02-13T10:39:43;103371.94;;;12.35;63.46
7264;BME280;3673;52.480;13.348;2023-02-13T10:42:22;103373.31;;;12.50;63.17
7264;BME280;3673;52.480;13.348;2023-02-13T10:45:13;103372.88;;;12.37;63.37
7264;BME280;3673;52.480;13.348;2023-02-13T10:47:57;103366.44;;;12.28;62.94
7264;BME280;3673;52.480;13.348;2023-02-13T10:50:37;103365.34;;;12.47;63.06
7264;BME280;3673;52.480;13.348;2023-02-13T10:53:16;103358.13;;;12.68;62.61
7264;BME280;3673;52.480;13.348;2023-02-13T10:56:03;103359.66;;;12.60;62.63
7264;BME280;3673;52.480;13.348;2023-02-13T10:58:49;103343.38;;;12.45;62.32
7264;BME280;3673;52.480;13.348;2023-02-13T11:01:24;103350.13;;;12.63;62.52
7264;BME280;3673;52.480;13.348;2023-02-13T11:04:04;103343.63;;;12.52;62.15
7264;BME280;3673;52.480;13.348;2023-02-13T11:06:35;103351.91;;;12.64;62.26
7264;BME280;3673;52.480;13.348;2023-02-13T11:09:05;103342.91;;;13.11;61.06
7264;BME280;3673;52.480;13.348;2023-02-13T11:11:35;103356.47;;;12.97;60.89
7264;BME280;3673;52.480;13.348;2023-02-13T11:14:12;103350.13;;;13.18;60.36
7264;BME280;3673;52.480;13.348;2023-02-13T11:16:53;103346.25;;;13.34;60.05
7264;BME280;3673;52.480;13.348;2023-02-13T11:19:27;103341.81;;;13.33;59.38
7264;BME280;3673;52.480;13.348;2023-02-13T11:22:02;103338.94;;;13.24;59.41
7264;BME280;3673;52.480;13.348;2023-02-13T11:24:30;103339.69;;;12.93;59.65
7264;BME280;3673;52.480;13.348;2023-02-13T11:27:01;103334.66;;;12.72;60.25
7264;BME280;3673;52.480;13.348;2023-02-13T11:29:34;103336.88;;;12.87;60.08
7264;BME280;3673;52.480;13.348;2023-02-13T11:32:17;103337.19;;;12.98;59.35
7264;BME280;3673;52.480;13.348;2023-02-13T11:34:45;103333.75;;;12.72;59.91
7264;BME280;3673;52.480;13.348;2023-02-13T11:37:24;103339.53;;;12.88;59.23
7264;BME280;3673;52.480;13.348;2023-02-13T11:39:53;103332.38;;;12.29;59.19
7264;BME280;3673;52.480;13.348;2023-02-13T11:42:26;103324.06;;;12.69;58.94
7264;BME280;3673;52.480;13.348;2023-02-13T11:44:57;103325.28;;;12.80;57.43
7264;BME280;3673;52.480;13.348;2023-02-13T11:47:39;103329.09;;;12.90;57.77
7264;BME280;3673;52.480;13.348;2023-02-13T11:50:21;103316.78;;;13.16;57.04
7264;BME280;3673;52.480;13.348;2023-02-13T11:52:56;103321.88;;;12.84;57.16
7264;BME280;3673;52.480;13.348;2023-02-13T11:55:30;103318.72;;;12.66;57.38
7264;BME280;3673;52.480;13.348;2023-02-13T11:58:00;103314.72;;;12.51;58.24
7264;BME280;3673;52.480;13.348;2023-02-13T12:00:32;103328.06;;;12.58;58.02
7264;BME280;3673;52.480;13.348;2023-02-13T12:03:04;103315.25;;;12.41;58.07
7264;BME280;3673;52.480;13.348;2023-02-13T12:06:00;103318.25;;;12.53;57.84
7264;BME280;3673;52.480;13.348;2023-02-13T12:08:30;103321.81;;;12.81;56.87
7264;BME280;3673;52.480;13.348;2023-02-13T12:10:58;103312.94;;;12.24;58.04
7264;BME280;3673;52.480;13.348;2023-02-13T12:13:31;103313.44;;;12.13;58.18
7264;BME280;3673;52.480;13.348;2023-02-13T12:16:02;103310.03;;;12.69;57.17
7264;BME280;3673;52.480;13.348;2023-02-13T12:18:33;103316.97;;;12.40;57.36
7264;BME280;3673;52.480;13.348;2023-02-13T12:21:22;103317.06;;;12.70;57.09
7264;BME280;3673;52.480;13.348;2023-02-13T12:24:00;103315.25;;;12.41;57.63
7264;BME280;3673;52.480;13.348;2023-02-13T12:26:32;103301.81;;;12.58;57.42
7264;BME280;3673;52.480;13.348;2023-02-13T12:29:27;103304.38;;;12.83;56.53
7264;BME280;3673;52.480;13.348;2023-02-13T12:32:15;103300.50;;;12.72;56.66
7264;BME280;3673;52.480;13.348;2023-02-13T12:35:18;103309.09;;;12.95;56.36
7264;BME280;3673;52.480;13.348;2023-02-13T12:37:59;103309.75;;;12.88;56.14
7264;BME280;3673;52.480;13.348;2023-02-13T12:40:46;103308.53;;;12.77;56.15
7264;BME280;3673;52.480;13.348;2023-02-13T12:43:50;103320.78;;;12.76;56.81
7264;BME280;3673;52.480;13.348;2023-02-13T12:46:30;103304.78;;;12.97;55.92
7264;BME280;3673;52.480;13.348;2023-02-13T12:49:13;103308.25;;;13.24;55.51
7264;BME280;3673;52.480;13.348;2023-02-13T12:52:07;103309.38;;;12.76;55.35
7264;BME280;3673;52.480;13.348;2023-02-13T12:54:52;103319.59;;;12.67;55.77
7264;BME280;3673;52.480;13.348;2023-02-13T12:57:41;103320.47;;;12.94;55.20
7264;BME280;3673;52.480;13.348;2023-02-13T13:00:24;103316.09;;;12.66;55.94
7264;BME280;3673;52.480;13.348;2023-02-13T13:03:08;103316.28;;;12.46;56.92
7264;BME280;3673;52.480;13.348;2023-02-13T13:05:56;103311.38;;;12.56;56.84
7264;BME280;3673;52.480;13.348;2023-02-13T13:08:43;103297.13;;;13.05;55.60
7264;BME280;3673;52.480;13.348;2023-02-13T13:11:28;103304.81;;;12.99;55.72
7264;BME280;3673;52.480;13.348;2023-02-13T13:14:06;103306.56;;;13.26;55.38
7264;BME280;3673;52.480;13.348;2023-02-13T13:16:43;103291.19;;;13.40;54.71
7264;BME280;3673;52.480;13.348;2023-02-13T13:19:25;103293.63;;;13.04;55.35
7264;BME280;3673;52.480;13.348;2023-02-13T13:21:59;103305.44;;;12.90;55.17
7264;BME280;3673;52.480;13.348;2023-02-13T13:24:40;103301.50;;;12.49;56.02
7264;BME280;3673;52.480;13.348;2023-02-13T13:27:18;103304.03;;;12.73;55.45
7264;BME280;3673;52.480;13.348;2023-02-13T13:29:53;103298.09;;;13.08;54.78
7264;BME280;3673;52.480;13.348;2023-02-13T13:32:22;103321.22;;;12.90;54.62